Time;durP1;ratioP1;P1;durP2;ratioP2;P2;SDS_P1;SDS_P2;PMS_P1;PMS_P2;Temp;Humidity;BMP_temperature;BMP_pressure;BME280_temperature;BME280_humidity;BME280_pressure;Samples;Min_cycle;Max_cycle;Signal;HPM_P1;HPM_P2
2023/12/26 00:01:33;;;;;;;16.88;6.47;;;;;;;7.92;43.51;93989.66;5004557;28;20073;-79
2023/12/26 00:03:59;;;;;;;11.20;5.35;;;;;;;7.99;43.49;93987.41;5013859;28;20207;-80
2023/12/26 00:06:24;;;;;;;13.68;6.75;;;;;;;7.95;43.36;93986.41;5011535;28;20021;-80
2023/12/26 00:08:50;;;;;;;11.18;6.50;;;;;;;7.96;43.44;93980.03;5014745;28;20129;-79
2023/12/26 00:11:15;;;;;;;10.82;6.68;;;;;;;7.94;43.72;93990.13;5010630;28;20041;-79
2023/12/26 00:13:41;;;;;;;16.15;6.30;;;;;;;7.82;43.96;93971.28;5014377;28;20050;-79
2023/12/26 00:16:07;;;;;;;12.20;7.22;;;;;;;7.83;43.79;93981.56;5012429;28;20021;-79
2023/12/26 00:18:33;;;;;;;10.40;6.50;;;;;;;7.81;43.58;93980.31;5013747;28;20029;-80
2023/12/26 00:20:58;;;;;;;11.07;6.97;;;;;;;7.79;43.97;93974.50;5012162;28;20033;-77
2023/12/26 00:23:24;;;;;;;10.05;6.25;;;;;;;7.85;43.45;93992.66;5013107;28;20048;-80
2023/12/26 00:25:49;;;;;;;11.48;6.35;;;;;;;7.83;43.29;93994.03;5007601;28;20425;-79
2023/12/26 00:28:16;;;;;;;10.55;5.75;;;;;;;7.76;43.08;93983.03;5014047;28;20060;-80
2023/12/26 00:30:41;;;;;;;10.43;5.28;;;;;;;7.68;43.21;93987.88;5008161;28;20664;-79
2023/12/26 00:33:07;;;;;;;11.32;4.35;;;;;;;7.65;43.18;93993.75;5013375;28;20038;-79
2023/12/26 00:35:32;;;;;;;7.13;4.15;;;;;;;7.60;43.34;94012.38;5015080;28;20088;-79
2023/12/26 00:37:58;;;;;;;7.15;3.95;;;;;;;7.54;43.49;94002.16;5014719;28;20033;-80
2023/12/26 00:40:24;;;;;;;8.85;5.00;;;;;;;7.66;43.84;94016.53;5015374;28;20037;-80
2023/12/26 00:42:50;;;;;;;10.18;4.95;;;;;;;7.40;43.98;93999.47;5013825;28;20791;-80
2023/12/26 00:45:15;;;;;;;10.05;5.93;;;;;;;7.64;43.88;94015.22;5014809;28;20035;-79
2023/12/26 00:47:41;;;;;;;7.38;5.25;;;;;;;7.54;43.86;94008.22;5016617;28;20758;-79
2023/12/26 00:50:11;;;;;;;6.82;4.38;;;;;;;7.60;43.54;94014.22;5016417;28;20044;-79
2023/12/26 00:52:38;;;;;;;10.18;5.03;;;;;;;7.54;43.78;94002.94;5014688;28;20063;-79
2023/12/26 00:55:05;;;;;;;9.48;5.78;;;;;;;7.66;44.02;94016.53;5015575;28;20037;-79
2023/12/26 00:57:33;;;;;;;15.10;7.75;;;;;;;7.57;44.01;94012.19;5016592;28;20029;-79
2023/12/26 00:59:58;;;;;;;14.48;6.68;;;;;;;7.50;44.11;94007.25;5016058;28;20032;-79
2023/12/26 01:02:25;;;;;;;9.15;6.97;;;;;;;7.34;44.07;93984.72;5013359;28;20057;-79
2023/12/26 01:04:51;;;;;;;9.95;6.07;;;;;;;7.58;43.85;94011.88;5015085;28;20116;-79
2023/12/26 01:07:16;;;;;;;7.97;4.93;;;;;;;7.67;43.70;94043.78;5005774;28;20033;-78
2023/12/26 01:09:42;;;;;;;8.65;5.75;;;;;;;7.72;43.84;94041.06;5013074;28;20075;-79
2023/12/26 01:12:07;;;;;;;11.45;6.93;;;;;;;7.67;43.64;94033.97;5013997;28;20079;-78
2023/12/26 01:14:33;;;;;;;8.07;4.93;;;;;;;7.67;43.66;94039.28;5013731;28;20049;-79
2023/12/26 01:16:58;;;;;;;10.07;5.10;;;;;;;7.47;43.89;94015.75;5014333;28;20053;-79
2023/12/26 01:19:23;;;;;;;13.18;6.47;;;;;;;7.52;43.75;94017.53;5013582;28;20117;-78
2023/12/26 01:21:49;;;;;;;9.55;5.95;;;;;;;7.51;44.14;94013.31;5015974;28;20052;-78
2023/12/26 01:24:14;;;;;;;10.27;5.97;;;;;;;7.35;44.53;94014.63;5011973;28;20033;-79
2023/12/26 01:26:40;;;;;;;11.00;5.68;;;;;;;7.36;44.72;94027.56;5016769;28;20828;-79
2023/12/26 01:29:07;;;;;;;7.82;4.80;;;;;;;7.35;44.76;94015.41;5014467;28;20606;-80
2023/12/26 01:31:36;;;;;;;11.82;6.60;;;;;;;7.43;44.96;94024.56;5010325;28;20528;-79
2023/12/26 01:34:03;;;;;;;15.30;8.48;;;;;;;7.29;44.75;94012.03;5015312;28;20993;-78
2023/12/26 01:36:28;;;;;;;13.63;8.52;;;;;;;7.41;45.04;94024.84;5019291;28;20021;-79
2023/12/26 01:38:53;;;;;;;25.30;10.25;;;;;;;7.32;45.18;94005.41;5017860;28;20048;-79
2023/12/26 01:41:19;;;;;;;23.38;11.18;;;;;;;7.46;45.14;94021.34;5016960;28;20049;-79
2023/12/26 01:43:45;;;;;;;23.33;11.48;;;;;;;7.51;44.95;94019.41;5019597;28;20076;-79
2023/12/26 01:46:12;;;;;;;20.98;9.73;;;;;;;7.46;44.79;94024.78;5017460;28;20036;-79
2023/12/26 01:48:39;;;;;;;16.23;8.40;;;;;;;7.33;45.09;94022.88;5015231;28;20116;-78
2023/12/26 01:51:08;;;;;;;12.75;7.28;;;;;;;7.35;45.29;94036.56;5018531;28;20038;-79
2023/12/26 01:53:38;;;;;;;14.32;7.32;;;;;;;7.35;45.22;94035.78;5017776;28;20033;-79
2023/12/26 01:56:07;;;;;;;12.50;6.97;;;;;;;7.30;45.26;94026.84;5009887;28;20068;-78
2023/12/26 01:58:32;;;;;;;16.17;7.38;;;;;;;7.29;45.40;94032.41;5015896;28;20042;-79
2023/12/26 02:00:58;;;;;;;15.98;7.65;;;;;;;7.38;45.38;94045.81;5016512;28;20028;-78
2023/12/26 02:03:23;;;;;;;8.98;5.90;;;;;;;7.28;45.44;94031.66;5016606;28;20401;-79
2023/12/26 02:05:48;;;;;;;9.90;6.32;;;;;;;7.17;45.18;94026.78;5016670;28;20030;-78
2023/12/26 02:08:14;;;;;;;9.75;6.22;;;;;;;7.20;45.71;94039.44;5016301;28;20102;-79
2023/12/26 02:10:39;;;;;;;12.27;6.55;;;;;;;7.26;45.61;94033.00;5019209;28;20044;-79
2023/12/26 02:13:05;;;;;;;12.85;8.05;;;;;;;7.16;45.74;94020.72;5016946;28;20153;-79
2023/12/26 02:15:30;;;;;;;14.43;8.02;;;;;;;7.14;46.12;94025.50;5016021;28;20048;-79
2023/12/26 02:17:56;;;;;;;13.15;7.35;;;;;;;7.16;45.89;94011.97;5015455;28;20037;-79
2023/12/26 02:20:22;;;;;;;12.38;6.18;;;;;;;7.15;45.71;94005.91;5015407;28;20571;-79
2023/12/26 02:22:47;;;;;;;15.60;6.03;;;;;;;6.97;45.77;93997.97;5017363;28;20041;-79
2023/12/26 02:25:13;;;;;;;9.18;5.88;;;;;;;7.09;45.79;94014.97;5009528;28;20032;-79
2023/12/26 02:27:39;;;;;;;15.93;7.38;;;;;;;6.95;45.80;94000.91;5017167;28;20552;-79
2023/12/26 02:30:07;;;;;;;12.73;5.28;;;;;;;6.95;45.95;94024.69;5015891;28;20056;-78
2023/12/26 02:32:36;;;;;;;8.85;4.95;;;;;;;6.94;45.86;94022.34;5015529;28;20400;-77
2023/12/26 02:35:05;;;;;;;9.52;5.03;;;;;;;6.89;45.60;94001.28;5016906;28;20581;-79
2023/12/26 02:37:31;;;;;;;7.75;4.47;;;;;;;7.05;45.66;94027.19;5016253;28;20037;-78
2023/12/26 02:39:56;;;;;;;10.70;4.50;;;;;;;7.12;45.33;94024.22;5019771;28;20398;-79
2023/12/26 02:42:24;;;;;;;12.38;5.28;;;;;;;7.22;44.93;94024.06;5016034;28;20076;-78
2023/12/26 02:44:50;;;;;;;9.88;4.22;;;;;;;7.21;44.87;94020.63;5014940;28;20579;-80
2023/12/26 02:47:15;;;;;;;6.22;3.40;;;;;;;7.31;44.37;94025.00;5014441;28;20072;-79
2023/12/26 02:49:41;;;;;;;8.02;3.55;;;;;;;7.33;44.25;94024.72;5014820;28;20503;-79
2023/12/26 02:52:06;;;;;;;5.07;3.08;;;;;;;7.41;44.05;94030.16;5016134;28;20064;-79
2023/12/26 02:54:32;;;;;;;6.25;3.53;;;;;;;7.43;43.94;94029.88;5017857;28;20021;-79
2023/12/26 02:56:57;;;;;;;5.22;2.97;;;;;;;7.39;44.08;94021.69;5015268;28;20045;-77
2023/12/26 02:59:23;;;;;;;6.78;3.40;;;;;;;7.46;44.49;94031.94;5017446;28;20492;-79
2023/12/26 03:01:48;;;;;;;5.72;3.38;;;;;;;7.43;44.18;94043.88;5017280;28;20112;-79
2023/12/26 03:04:14;;;;;;;8.27;3.95;;;;;;;7.31;44.56;94035.56;5016628;28;20029;-79
2023/12/26 03:06:40;;;;;;;7.25;4.05;;;;;;;7.22;44.49;94030.16;5014576;28;20056;-78
2023/12/26 03:09:05;;;;;;;8.75;3.83;;;;;;;7.23;44.58;94039.66;5015693;28;20060;-79
2023/12/26 03:11:31;;;;;;;5.80;3.25;;;;;;;7.16;44.80;94030.50;5016197;28;20034;-79
2023/12/26 03:13:58;;;;;;;7.32;4.40;;;;;;;7.13;44.64;94031.09;5017069;28;20447;-78
2023/12/26 03:16:23;;;;;;;13.38;4.90;;;;;;;7.08;45.03;94031.16;5017273;28;20035;-78
2023/12/26 03:18:51;;;;;;;14.32;6.38;;;;;;;7.06;45.19;94030.63;5016228;28;20437;-78
2023/12/26 03:21:16;;;;;;;7.38;4.07;;;;;;;7.06;45.27;94049.16;5016226;28;20599;-79
2023/12/26 03:23:42;;;;;;;5.50;3.30;;;;;;;6.97;45.38;94045.56;5016835;28;20033;-78
2023/12/26 03:26:07;;;;;;;7.20;3.38;;;;;;;6.91;45.47;94046.69;5014431;28;20535;-79
2023/12/26 03:28:34;;;;;;;7.07;4.07;;;;;;;6.82;45.69;94047.34;5016568;28;20047;-80
2023/12/26 03:31:02;;;;;;;6.22;3.70;;;;;;;6.92;45.53;94048.28;5016334;28;20049;-79
2023/12/26 03:33:27;;;;;;;6.07;3.58;;;;;;;6.79;45.30;94026.78;5017012;28;20033;-79
2023/12/26 03:35:53;;;;;;;6.55;3.40;;;;;;;6.68;45.65;94037.75;5015050;28;20634;-79
2023/12/26 03:38:18;;;;;;;6.88;3.40;;;;;;;6.76;45.54;94051.09;5015354;28;20057;-78
2023/12/26 03:40:43;;;;;;;9.10;4.03;;;;;;;6.72;46.08;94047.47;5016115;28;20033;-79
2023/12/26 03:43:09;;;;;;;6.93;3.47;;;;;;;6.67;45.71;94036.94;5017129;28;20044;-79
2023/12/26 03:45:34;;;;;;;8.10;3.33;;;;;;;6.59;46.15;94034.16;5016333;28;20067;-78
2023/12/26 03:47:59;;;;;;;8.32;3.75;;;;;;;6.70;45.98;94046.94;5015957;28;20397;-78
2023/12/26 03:50:25;;;;;;;9.93;5.28;;;;;;;6.61;46.13;94038.06;5014137;28;20080;-79
2023/12/26 03:52:51;;;;;;;11.50;4.88;;;;;;;6.64;46.30;94052.59;5025114;28;20634;-77
2023/12/26 03:55:16;;;;;;;4.78;3.22;;;;;;;6.68;45.93;94051.75;5013332;28;20021;-79
2023/12/26 03:57:42;;;;;;;10.25;3.72;;;;;;;6.69;46.05;94053.31;5013595;28;20485;-78
2023/12/26 04:00:09;;;;;;;8.10;3.75;;;;;;;6.37;46.59;94047.84;5016632;28;20033;-78
2023/12/26 04:02:34;;;;;;;5.15;3.28;;;;;;;6.51;46.42;94037.41;5016848;28;20614;-78
2023/12/26 04:05:01;;;;;;;6.53;4.25;;;;;;;6.46;46.14;94029.56;5018035;28;20045;-78
2023/12/26 04:07:27;;;;;;;6.40;3.50;;;;;;;6.58;46.00;94049.22;5014261;28;20041;-78
2023/12/26 04:09:52;;;;;;;5.18;3.20;;;;;;;6.55;45.98;94041.88;5016327;28;20037;-78
2023/12/26 04:12:18;;;;;;;7.63;4.18;;;;;;;6.59;46.06;94048.16;5016244;28;20037;-77
2023/12/26 04:14:43;;;;;;;10.27;4.03;;;;;;;6.63;46.24;94051.00;5015997;28;20037;-78
2023/12/26 04:17:08;;;;;;;7.95;4.32;;;;;;;6.68;46.10;94056.25;5014965;28;20488;-78
2023/12/26 04:19:34;;;;;;;3.50;2.63;;;;;;;6.57;46.19;94052.91;5013211;28;20057;-79
2023/12/26 04:21:59;;;;;;;7.55;4.00;;;;;;;6.57;46.31;94063.50;5017255;28;20033;-78
2023/12/26 04:24:25;;;;;;;6.43;3.30;;;;;;;6.53;46.43;94067.78;5013082;28;20021;-79
2023/12/26 04:26:51;;;;;;;9.45;4.28;;;;;;;6.45;46.50;94049.91;5016835;28;20045;-79
2023/12/26 04:29:16;;;;;;;8.45;4.40;;;;;;;6.50;46.62;94067.56;5015337;28;20025;-79
2023/12/26 04:31:43;;;;;;;7.03;4.97;;;;;;;6.51;46.11;94064.59;5013344;28;20702;-78
2023/12/26 04:34:09;;;;;;;5.25;3.45;;;;;;;6.42;46.88;94053.88;5007386;28;20523;-78
2023/12/26 04:36:35;;;;;;;5.35;3.35;;;;;;;6.43;46.85;94075.81;5013875;28;20049;-79
2023/12/26 04:39:04;;;;;;;6.13;3.85;;;;;;;6.32;46.78;94053.19;5015154;28;20065;-78
2023/12/26 04:41:30;;;;;;;7.53;4.25;;;;;;;6.15;46.63;94029.06;5015255;28;20504;-79
2023/12/26 04:43:55;;;;;;;7.68;3.80;;;;;;;6.40;46.29;94068.44;5015989;28;20041;-79
2023/12/26 04:46:21;;;;;;;13.00;6.82;;;;;;;6.47;46.36;94079.44;5012682;28;20123;-78
2023/12/26 04:48:46;;;;;;;10.02;5.30;;;;;;;6.39;46.82;94061.59;5015494;28;20026;-78
2023/12/26 04:51:18;;;;;;;42.22;16.30;;;;;;;6.41;46.14;94070.78;5012070;28;20103;-80
2023/12/26 04:53:45;;;;;;;19.25;9.35;;;;;;;6.38;46.65;94081.94;5015152;28;20084;-80
2023/12/26 04:56:20;;;;;;;13.77;6.25;;;;;;;6.27;46.68;94064.59;5006484;28;20567;-79
2023/12/26 04:58:49;;;;;;;31.60;13.50;;;;;;;6.43;46.67;94081.09;5014712;28;20026;-77
2023/12/26 05:01:16;;;;;;;12.25;5.05;;;;;;;6.22;47.01;94077.84;5014270;28;20029;-78
2023/12/26 05:03:43;;;;;;;9.43;4.75;;;;;;;6.16;47.21;94072.91;5017452;28;20029;-79
2023/12/26 05:06:08;;;;;;;26.15;11.43;;;;;;;6.06;47.05;94057.13;5009440;28;20634;-79
2023/12/26 05:08:36;;;;;;;23.38;11.90;;;;;;;6.13;47.24;94068.16;5014047;28;20033;-79
2023/12/26 05:11:02;;;;;;;9.13;4.45;;;;;;;6.06;47.24;94057.13;5015363;28;20913;-78
2023/12/26 05:13:28;;;;;;;13.02;6.88;;;;;;;6.24;47.06;94080.22;5017183;28;20445;-79
2023/12/26 05:15:54;;;;;;;17.00;9.55;;;;;;;6.13;47.00;94062.88;5017913;28;20155;-79
2023/12/26 05:18:20;;;;;;;14.57;6.90;;;;;;;6.20;46.95;94072.09;5020019;28;20033;-79
2023/12/26 05:20:46;;;;;;;19.75;8.23;;;;;;;6.24;47.19;94082.88;5017809;28;20052;-77
2023/12/26 05:23:11;;;;;;;17.67;6.82;;;;;;;6.07;46.98;94048.16;5017209;28;20029;-79
2023/12/26 05:25:36;;;;;;;17.13;7.82;;;;;;;6.25;46.95;94071.25;5017610;28;20025;-79
2023/12/26 05:28:02;;;;;;;7.43;5.40;;;;;;;5.98;47.26;94053.22;5018805;28;20635;-78
2023/12/26 05:30:27;;;;;;;11.27;6.28;;;;;;;6.04;47.42;94067.19;5018216;28;20017;-78
2023/12/26 05:32:53;;;;;;;5.85;4.65;;;;;;;6.10;47.24;94063.44;5019222;28;20740;-79
2023/12/26 05:35:18;;;;;;;14.90;5.63;;;;;;;5.98;47.46;94072.50;5018124;28;20045;-79
2023/12/26 05:37:45;;;;;;;8.90;4.72;;;;;;;5.95;47.49;94078.34;5017293;28;20385;-79
2023/12/26 05:40:10;;;;;;;8.90;4.68;;;;;;;5.90;47.53;94077.59;5019268;28;20652;-79
2023/12/26 05:42:36;;;;;;;8.73;4.95;;;;;;;5.60;47.77;94039.03;5016714;28;20021;-78
2023/12/26 05:45:03;;;;;;;6.22;4.20;;;;;;;5.79;47.61;94054.97;5019386;28;20113;-78
2023/12/26 05:47:28;;;;;;;8.95;4.75;;;;;;;5.79;47.83;94078.75;5016572;28;20096;-78
2023/12/26 05:49:57;;;;;;;6.72;4.00;;;;;;;5.83;47.76;94080.53;5017427;28;20502;-78
2023/12/26 05:52:23;;;;;;;6.82;4.00;;;;;;;5.66;48.25;94074.88;5032239;28;20044;-78
2023/12/26 05:54:48;;;;;;;7.13;4.38;;;;;;;5.69;48.23;94078.81;5019358;28;20594;-78
2023/12/26 05:57:14;;;;;;;9.70;5.20;;;;;;;5.60;48.18;94080.47;5018577;28;20068;-78
2023/12/26 05:59:40;;;;;;;10.00;5.00;;;;;;;5.63;48.23;94079.94;5016768;28;20045;-79
2023/12/26 06:02:05;;;;;;;8.15;4.68;;;;;;;5.73;48.18;94085.91;5019186;28;20065;-78
2023/12/26 06:04:30;;;;;;;8.27;4.90;;;;;;;5.75;48.14;94089.06;5017693;28;20037;-79
2023/12/26 06:06:59;;;;;;;10.18;6.07;;;;;;;5.57;48.09;94052.78;5017784;28;20025;-78
2023/12/26 06:09:26;;;;;;;10.52;6.38;;;;;;;5.82;48.02;94084.25;5017604;28;20034;-78
2023/12/26 06:11:51;;;;;;;6.75;5.28;;;;;;;5.72;47.68;94059.81;5018770;28;20033;-77
2023/12/26 06:14:17;;;;;;;10.20;5.07;;;;;;;5.87;47.81;94091.38;5017086;28;20041;-79
2023/12/26 06:16:42;;;;;;;15.13;8.23;;;;;;;5.78;48.00;94075.31;5016856;28;20543;-78
2023/12/26 06:19:09;;;;;;;14.60;7.30;;;;;;;5.96;47.94;94082.56;5015771;28;20401;-79
2023/12/26 06:21:35;;;;;;;12.90;7.13;;;;;;;5.97;48.27;94096.53;5017488;28;20480;-79
2023/12/26 06:24:00;;;;;;;10.55;7.00;;;;;;;5.88;48.64;94095.56;5015886;28;20110;-79
2023/12/26 06:26:26;;;;;;;12.57;7.30;;;;;;;5.85;48.78;94093.47;5018055;28;20043;-79
2023/12/26 06:28:51;;;;;;;15.63;9.75;;;;;;;5.82;48.70;94089.53;5017759;28;20029;-78
2023/12/26 06:31:18;;;;;;;12.98;7.88;;;;;;;5.90;48.67;94101.34;5018469;28;20110;-79
2023/12/26 06:33:44;;;;;;;14.88;7.45;;;;;;;5.84;48.84;94090.03;5016161;28;20029;-78
2023/12/26 06:36:09;;;;;;;12.57;7.43;;;;;;;5.84;48.80;94113.00;5016560;28;20037;-78
2023/12/26 06:38:35;;;;;;;12.95;7.40;;;;;;;5.73;49.20;94085.91;5018577;28;20049;-79
2023/12/26 06:41:02;;;;;;;14.73;8.18;;;;;;;5.76;48.99;94095.13;5017934;28;20515;-78
2023/12/26 06:43:29;;;;;;;11.77;5.97;;;;;;;5.87;48.79;94097.41;5014342;28;20033;-79
2023/12/26 06:45:55;;;;;;;14.27;7.68;;;;;;;5.76;49.22;94095.94;5019127;28;20021;-78
2023/12/26 06:48:21;;;;;;;17.42;9.05;;;;;;;5.66;49.85;94089.94;5016078;28;20140;-79
2023/12/26 06:50:46;;;;;;;19.00;8.52;;;;;;;5.75;49.74;94093.56;5016209;28;20036;-78
2023/12/26 06:53:11;;;;;;;13.90;7.88;;;;;;;5.92;49.58;94100.00;5008535;28;20095;-80
2023/12/26 06:55:37;;;;;;;15.00;8.27;;;;;;;5.91;50.08;94114.28;5017536;28;20822;-80
2023/12/26 06:58:04;;;;;;;13.63;8.48;;;;;;;5.93;49.62;94111.34;5015735;28;20036;-78
2023/12/26 07:00:29;;;;;;;15.30;9.10;;;;;;;6.13;49.00;94123.59;5017694;28;20104;-79
2023/12/26 07:02:55;;;;;;;16.20;8.63;;;;;;;6.07;49.14;94116.81;5015223;28;20429;-79
2023/12/26 07:05:21;;;;;;;14.20;7.78;;;;;;;6.16;49.25;94110.69;5017953;28;20423;-79
2023/12/26 07:07:47;;;;;;;13.55;8.05;;;;;;;6.12;49.35;94100.88;5013218;28;20242;-78
2023/12/26 07:10:13;;;;;;;14.40;8.18;;;;;;;6.21;49.08;94105.34;5016789;28;20025;-79
2023/12/26 07:12:38;;;;;;;15.13;7.75;;;;;;;6.09;48.93;94104.09;5016131;28;20439;-79
2023/12/26 07:15:05;;;;;;;15.88;7.57;;;;;;;6.09;49.21;94102.25;5015518;28;20141;-78
2023/12/26 07:17:31;;;;;;;13.65;7.43;;;;;;;6.41;48.74;94128.13;5016662;28;20048;-79
2023/12/26 07:19:56;;;;;;;14.05;7.55;;;;;;;6.42;48.56;94124.41;5018207;28;20112;-78
2023/12/26 07:22:22;;;;;;;13.70;8.75;;;;;;;6.49;48.59;94132.03;5016625;28;21216;-78
2023/12/26 07:24:48;;;;;;;15.48;8.90;;;;;;;6.61;48.35;94133.22;5019121;28;20108;-79
2023/12/26 07:27:13;;;;;;;12.57;8.77;;;;;;;6.49;48.52;94124.91;5015771;28;20505;-79
2023/12/26 07:29:39;;;;;;;9.95;7.28;;;;;;;6.57;48.50;94116.34;5017888;28;20026;-79
2023/12/26 07:32:04;;;;;;;16.23;9.32;;;;;;;6.68;48.30;94128.41;5012544;28;20409;-79
2023/12/26 07:34:30;;;;;;;14.55;8.88;;;;;;;6.63;48.65;94139.03;5016247;28;20399;-79
2023/12/26 07:36:55;;;;;;;26.55;10.88;;;;;;;6.40;49.37;94123.94;5015915;28;20051;-79
2023/12/26 07:39:21;;;;;;;20.88;10.18;;;;;;;6.73;49.16;94136.28;5017504;28;20462;-79
2023/12/26 07:41:46;;;;;;;26.10;11.15;;;;;;;6.89;48.87;94131.63;5015149;28;20044;-78
2023/12/26 07:44:11;;;;;;;27.60;12.95;;;;;;;6.65;49.15;94102.50;5018236;28;20036;-79
2023/12/26 07:46:37;;;;;;;22.02;12.23;;;;;;;6.86;48.86;94125.00;5014329;28;20033;-78
2023/12/26 07:49:09;;;;;;;23.73;11.50;;;;;;;6.87;48.95;94115.22;5009317;28;20035;-78
2023/12/26 07:51:34;;;;;;;22.13;11.95;;;;;;;7.14;48.85;94135.81;5016967;28;20024;-79
2023/12/26 07:54:00;;;;;;;18.92;11.63;;;;;;;7.09;48.43;94115.47;5029427;28;20048;-79
2023/12/26 07:56:26;;;;;;;20.75;12.27;;;;;;;7.16;48.38;94120.44;5013537;28;20578;-79
2023/12/26 07:58:52;;;;;;;25.52;12.80;;;;;;;7.39;47.93;94134.69;5015613;28;20030;-79
2023/12/26 08:01:18;;;;;;;24.58;13.40;;;;;;;7.45;47.79;94129.03;5015277;28;20119;-79
2023/12/26 08:03:44;;;;;;;22.77;12.35;;;;;;;7.07;48.65;94148.59;5016148;28;20025;-79
2023/12/26 08:06:09;;;;;;;26.15;12.20;;;;;;;7.19;48.76;94127.81;5014897;28;20030;-80
2023/12/26 08:08:35;;;;;;;23.00;12.40;;;;;;;7.46;48.21;94133.28;5015941;28;20107;-79
2023/12/26 08:11:00;;;;;;;29.02;14.60;;;;;;;6.85;49.21;94128.72;5014557;28;20050;-78
2023/12/26 08:13:25;;;;;;;25.42;15.38;;;;;;;7.15;49.15;94134.72;5015735;28;20065;-80
2023/12/26 08:15:51;;;;;;;21.45;13.95;;;;;;;6.88;49.83;94131.88;5016407;28;20417;-78
2023/12/26 08:18:16;;;;;;;16.50;13.48;;;;;;;7.01;49.25;94121.41;5015510;28;20152;-79
2023/12/26 08:20:42;;;;;;;22.25;12.25;;;;;;;6.81;50.12;94138.28;5015044;28;20730;-77
2023/12/26 08:23:07;;;;;;;23.27;12.30;;;;;;;6.89;49.50;94136.13;5016972;28;20033;-79
2023/12/26 08:25:33;;;;;;;19.90;11.38;;;;;;;6.55;49.99;94137.00;5012365;28;20591;-79
2023/12/26 08:27:58;;;;;;;19.65;12.93;;;;;;;7.02;49.28;94122.19;5017394;28;20740;-77
2023/12/26 08:30:23;;;;;;;26.63;15.40;;;;;;;7.01;48.88;94125.91;5014533;28;20040;-78
2023/12/26 08:32:49;;;;;;;26.67;13.40;;;;;;;7.20;48.93;94134.66;5014191;28;20052;-79
2023/12/26 08:35:14;;;;;;;25.10;14.50;;;;;;;7.49;48.07;94139.84;5012568;28;20644;-79
2023/12/26 08:37:40;;;;;;;28.63;14.73;;;;;;;7.73;47.82;94130.78;5013086;28;20516;-79
2023/12/26 08:40:06;;;;;;;21.95;14.27;;;;;;;7.70;47.63;94123.41;5014069;28;20868;-78
2023/12/26 08:42:31;;;;;;;28.00;15.63;;;;;;;7.73;46.76;94130.78;5013557;28;20025;-78
2023/12/26 08:44:56;;;;;;;23.50;14.38;;;;;;;7.19;47.98;94136.53;5013340;28;20439;-78
2023/12/26 08:47:22;;;;;;;25.83;14.90;;;;;;;7.73;47.52;94136.09;5015158;28;20561;-77
2023/12/26 08:49:47;;;;;;;27.83;18.80;;;;;;;7.59;47.24;94119.31;5012474;28;20099;-78
2023/12/26 08:52:13;;;;;;;26.25;14.95;;;;;;;7.99;46.37;94123.25;5013390;28;20041;-78
2023/12/26 08:54:41;;;;;;;26.92;16.15;;;;;;;8.12;45.86;94129.66;5014972;28;20488;-77
2023/12/26 08:57:06;;;;;;;26.55;16.20;;;;;;;7.65;47.05;94135.94;5014133;28;20040;-78
2023/12/26 08:59:32;;;;;;;28.33;14.77;;;;;;;7.72;47.45;94139.00;5013731;28;20503;-78
2023/12/26 09:01:57;;;;;;;24.95;15.35;;;;;;;7.76;47.12;94115.41;5013813;28;20044;-78
2023/12/26 09:04:26;;;;;;;31.88;16.75;;;;;;;8.02;46.70;94127.97;5014458;28;20041;-77
2023/12/26 09:06:52;;;;;;;23.85;16.15;;;;;;;8.19;45.78;94113.41;5014400;28;20029;-79
2023/12/26 09:09:18;;;;;;;24.27;14.65;;;;;;;8.44;45.59;94120.94;5013600;28;20030;-79
2023/12/26 09:11:43;;;;;;;25.90;16.35;;;;;;;8.64;45.56;94131.19;5015737;28;20103;-78
2023/12/26 09:14:08;;;;;;;22.73;15.32;;;;;;;8.68;45.39;94118.13;5011204;28;20044;-79
2023/12/26 09:16:34;;;;;;;24.23;15.43;;;;;;;8.40;45.29;94128.69;5013243;28;20046;-79
2023/12/26 09:18:59;;;;;;;26.23;14.55;;;;;;;8.07;46.29;94119.19;5010504;28;20026;-79
2023/12/26 09:21:25;;;;;;;23.85;16.15;;;;;;;7.46;47.90;94120.03;5013448;28;20028;-79
2023/12/26 09:23:50;;;;;;;28.25;16.45;;;;;;;7.59;47.63;94110.59;5013159;28;20068;-79
2023/12/26 09:26:21;;;;;;;32.35;17.58;;;;;;;7.70;47.73;94096.94;5014880;28;20033;-78
2023/12/26 09:28:46;;;;;;;24.25;15.15;;;;;;;7.55;47.74;94075.97;5005314;28;20143;-78
2023/12/26 09:31:12;;;;;;;29.52;16.77;;;;;;;7.59;48.17;94092.06;5013989;28;20188;-78
2023/12/26 09:33:37;;;;;;;23.75;16.48;;;;;;;7.57;47.91;94087.06;5016153;28;20476;-78
2023/12/26 09:36:04;;;;;;;24.38;15.80;;;;;;;7.26;49.04;94072.69;5012979;28;20037;-77
2023/12/26 09:38:29;;;;;;;32.92;17.40;;;;;;;7.12;49.05;94053.31;5015098;28;20041;-79
2023/12/26 09:40:55;;;;;;;25.67;15.88;;;;;;;7.27;49.14;94072.41;5006596;28;20026;-78
2023/12/26 09:43:20;;;;;;;25.45;15.00;;;;;;;7.40;48.80;94076.19;5012984;28;20465;-79
2023/12/26 09:45:46;;;;;;;30.38;14.13;;;;;;;7.64;48.19;94074.25;5012697;28;20701;-76
2023/12/26 09:48:11;;;;;;;21.35;12.95;;;;;;;7.46;47.60;94058.38;5014160;28;20523;-78
2023/12/26 09:50:37;;;;;;;19.80;12.02;;;;;;;7.47;47.89;94059.97;5014254;28;20100;-79
2023/12/26 09:53:07;;;;;;;21.98;13.45;;;;;;;7.42;48.01;94079.34;5012585;28;20041;-77
2023/12/26 09:55:32;;;;;;;16.13;11.15;;;;;;;7.59;47.61;94081.47;5008356;28;20033;-79
2023/12/26 09:57:58;;;;;;;16.15;10.27;;;;;;;7.30;47.85;94061.25;5016468;28;20025;-78
2023/12/26 10:00:28;;;;;;;14.90;9.45;;;;;;;7.70;47.19;94054.56;5019086;28;20626;-78
2023/12/26 10:02:53;;;;;;;14.77;9.80;;;;;;;8.09;46.13;94048.13;5015152;28;20041;-78
2023/12/26 10:05:20;;;;;;;16.95;9.68;;;;;;;8.15;45.55;94017.84;5019760;28;20030;-79
2023/12/26 10:07:46;;;;;;;15.88;9.15;;;;;;;8.11;45.71;94059.25;5017857;28;20034;-78
2023/12/26 10:10:20;;;;;;;15.38;9.20;;;;;;;8.33;45.90;94040.81;5018429;28;20515;-78
2023/12/26 10:12:49;;;;;;;15.55;8.75;;;;;;;8.18;45.50;94033.16;5017850;28;20021;-77
2023/12/26 10:15:15;;;;;;;16.45;8.85;;;;;;;8.23;45.81;94043.66;5018914;28;20041;-78
2023/12/26 10:17:43;;;;;;;20.63;10.18;;;;;;;8.09;45.87;94043.63;5012044;28;20411;-78
2023/12/26 10:20:15;;;;;;;16.02;9.30;;;;;;;8.29;45.83;94039.06;5017570;28;20075;-79
2023/12/26 10:22:44;;;;;;;13.95;9.65;;;;;;;8.53;45.37;94045.75;5015797;28;20096;-78
2023/12/26 10:25:13;;;;;;;18.45;10.75;;;;;;;8.50;44.34;94035.75;5017192;28;20090;-78
2023/12/26 10:27:39;;;;;;;17.25;9.02;;;;;;;9.05;44.49;94030.38;5015788;28;20037;-78
2023/12/26 10:30:05;;;;;;;13.05;9.38;;;;;;;9.03;43.92;94020.09;5017886;28;20250;-78
2023/12/26 10:32:31;;;;;;;13.07;8.25;;;;;;;9.34;43.74;94030.06;5017817;28;20045;-78
2023/12/26 10:34:56;;;;;;;18.25;8.35;;;;;;;9.32;42.72;94022.41;5018408;28;20096;-79
2023/12/26 10:37:22;;;;;;;15.73;7.53;;;;;;;9.21;43.67;94007.00;5017758;28;20416;-77
2023/12/26 10:39:51;;;;;;;16.27;8.77;;;;;;;9.33;43.80;94007.25;5011047;28;20022;-78
2023/12/26 10:42:17;;;;;;;16.88;7.70;;;;;;;9.65;42.99;94015.00;5008838;28;20036;-79
2023/12/26 10:45:04;;;;;;;17.58;8.82;;;;;;;9.45;43.34;94018.91;5017011;28;20115;-78
2023/12/26 10:47:31;;;;;;;14.02;8.15;;;;;;;9.49;42.95;94003.16;5016735;28;20099;-78
2023/12/26 10:50:01;;;;;;;11.57;7.60;;;;;;;9.61;42.65;94010.59;5017418;28;20037;-78
2023/12/26 10:52:30;;;;;;;12.93;7.15;;;;;;;9.66;42.76;94015.78;5015514;28;20374;-78
2023/12/26 10:54:59;;;;;;;13.00;7.38;;;;;;;10.07;41.68;94005.75;5017921;28;20031;-79
2023/12/26 10:57:25;;;;;;;16.33;9.13;;;;;;;10.18;41.28;94009.69;5017363;28;20044;-78
2023/12/26 13:51:55;;;;;;;64.60;35.55;;;;;;;12.46;37.96;93874.84;5018910;28;20475;-78
2023/12/26 13:54:57;;;;;;;51.65;33.08;;;;;;;12.45;38.02;93865.28;5019912;28;20501;-78
2023/12/26 13:58:00;;;;;;;60.97;36.53;;;;;;;12.37;37.79;93868.78;5019027;28;20089;-78
2023/12/26 14:01:03;;;;;;;42.78;26.17;;;;;;;12.31;37.86;93857.50;5018827;28;20563;-79
2023/12/26 14:04:06;;;;;;;35.95;19.95;;;;;;;12.27;38.19;93847.81;5019162;28;20045;-79
2023/12/26 14:07:09;;;;;;;26.52;13.35;;;;;;;12.21;38.35;93846.41;5019761;28;20033;-78
2023/12/26 14:10:13;;;;;;;23.10;13.88;;;;;;;11.84;39.08;93840.78;5015573;28;20483;-78
2023/12/26 14:13:16;;;;;;;18.10;11.38;;;;;;;11.82;38.90;93845.66;5019236;28;20496;-78
2023/12/26 14:16:23;;;;;;;23.70;10.95;;;;;;;11.80;38.26;93839.84;5018123;28;20040;-78
2023/12/26 14:19:25;;;;;;;14.65;8.02;;;;;;;11.75;37.82;93845.34;5017640;28;20041;-78
2023/12/26 14:22:28;;;;;;;14.18;11.68;;;;;;;11.54;37.76;93847.16;5017213;28;20041;-79
2023/12/26 14:25:32;;;;;;;12.82;8.55;;;;;;;11.47;38.03;93838.84;5015731;28;20048;-79
2023/12/26 14:28:34;;;;;;;17.13;10.10;;;;;;;11.46;37.71;93845.25;5018958;28;20031;-79